Suttons Bay, MI

10:16 PM EDT on July 01, 2015 (GMT -0400)
South Shore Drive | | Change Station
CLOSE
Current Station
Personal Weather Station
Location: Suttons Bay, MI
Elevation: 597 ft
Nearby Weather Stations

Elev 597 ft 44.97 °N, 85.64 °W | Updated 47 seconds ago

Partly Cloudy
Partly Cloudy
56.0 °F
Feels Like 56.0 °F
N
3.0
Wind Variable Wind from WNW
Gusts 7.0 mph

Today
High -- | Low -- °F
--% Chance of Precip.
Yesterday
High -- | Low -- °F
Precip. -- in
5:59 AM 9:32 PM
Full, 100% visible
Pressure 29.99 in
Visibility 10.0 miles
Clouds Few 3000 ft
Few 25000 ft
Dew Point 51 °F
Humidity 84%
Rainfall 0.00 in
Snow Depth Not available.
UV 0 out of 12
Pollen 4.00 out of 12
Air Quality Not available.
Flu Activity Not available.
METAR KTVC 020153Z 00000KT 10SM FEW030 FEW250 12/10 A2998 RMK AO2 SLP155 LAST AUGMENTED OBS OF DAY UNTIL 11Z T01220100

More Conditions Fewer Conditions

Pressure 29.99 in
Visibility 10.0 miles
Clouds Few 3000 ft
Few 25000 ft
Dew Point 51 °F
Humidity 84%
Rainfall 0.00 in
Snow Depth Not available.
UV 0 out of 12
Pollen 4.00 out of 12
Air Quality Not available.
Flu Activity Not available.
METAR KTVC 020153Z 00000KT 10SM FEW030 FEW250 12/10 A2998 RMK AO2 SLP155 LAST AUGMENTED OBS OF DAY UNTIL 11Z T01220100

More Conditions Fewer Conditions

Nowcast | as of 10:00 PM EDT on July 1, 2015

At 11 PM...mostly clear. Temperature 57. North winds 7 mph. At 1 am...mostly clear. Temperature 56. North winds 7 mph. At 3 am...mostly clear. Patchy fog. Temperature 54. Northeast winds 7 mph. At 5 am...mostly clear. Patchy fog. Temperature 51. Northeast winds 6 mph.

×

10-Day Weather Forecast

×

Almanac

Astronomy

Jul. 01, 2015 Rise Set
Actual Time
Civil Twilight
Nautical Twilight
Astronomical Twilight
Moon
Length of Visible Light
Length of Day
Tomorrow will be .
, % of the Moon is Illuminated

Today's Extremes

State Highs State Lows

Community

WunderPhotos

Upload Photos

1,834,376 photos uploaded!

WunderBlogs® & News

Nearby

Air Quality

  Air Quality AQ Index Pollutant
Not available.

Snow Depth

Station Depth Elevation

Earthquake Activity

City Distance Mag. Time & Date
Minimum magnitude displayed is 2.5.

Coastal Water Temperatures

Place Temperature

Stations

Nearby Weather Stations

Station Location Temp. Windchill Dew Point Humidity Wind Precip. Elev Updated Type